sensor_id;sensor_type;location;lat;lon;timestamp;P1;durP1;ratioP1;P2;durP2;ratioP2
85510;SDS011;75921;51.616;11.880;2024-03-02T00:01:57;37.90;;;19.40;;
85510;SDS011;75921;51.616;11.880;2024-03-02T00:04:23;38.70;;;18.02;;
85510;SDS011;75921;51.616;11.880;2024-03-02T00:06:50;38.75;;;18.58;;
85510;SDS011;75921;51.616;11.880;2024-03-02T00:09:17;40.72;;;18.02;;
85510;SDS011;75921;51.616;11.880;2024-03-02T00:11:43;38.67;;;17.27;;
85510;SDS011;75921;51.616;11.880;2024-03-02T00:14:08;36.83;;;18.00;;
85510;SDS011;75921;51.616;11.880;2024-03-02T00:16:34;39.83;;;20.20;;
85510;SDS011;75921;51.616;11.880;2024-03-02T00:19:05;35.37;;;17.23;;
85510;SDS011;75921;51.616;11.880;2024-03-02T00:21:32;41.50;;;18.63;;
85510;SDS011;75921;51.616;11.880;2024-03-02T00:23:57;39.55;;;17.10;;
85510;SDS011;75921;51.616;11.880;2024-03-02T00:26:23;42.60;;;18.48;;
85510;SDS011;75921;51.616;11.880;2024-03-02T00:28:48;38.03;;;18.33;;
85510;SDS011;75921;51.616;11.880;2024-03-02T00:31:19;39.72;;;18.23;;
85510;SDS011;75921;51.616;11.880;2024-03-02T00:33:48;44.35;;;19.10;;
85510;SDS011;75921;51.616;11.880;2024-03-02T00:36:24;40.80;;;20.08;;
85510;SDS011;75921;51.616;11.880;2024-03-02T00:38:51;41.63;;;18.80;;
85510;SDS011;75921;51.616;11.880;2024-03-02T00:41:30;37.60;;;18.75;;
85510;SDS011;75921;51.616;11.880;2024-03-02T00:46:59;39.03;;;19.83;;
85510;SDS011;75921;51.616;11.880;2024-03-02T00:49:24;36.20;;;18.27;;
85510;SDS011;75921;51.616;11.880;2024-03-02T00:51:52;35.83;;;17.55;;
85510;SDS011;75921;51.616;11.880;2024-03-02T00:54:19;41.08;;;18.10;;
85510;SDS011;75921;51.616;11.880;2024-03-02T00:56:46;38.47;;;17.02;;
85510;SDS011;75921;51.616;11.880;2024-03-02T00:59:12;40.47;;;18.98;;
85510;SDS011;75921;51.616;11.880;2024-03-02T01:01:37;36.63;;;18.63;;
85510;SDS011;75921;51.616;11.880;2024-03-02T01:04:03;37.93;;;18.13;;
85510;SDS011;75921;51.616;11.880;2024-03-02T01:06:28;40.72;;;17.45;;
85510;SDS011;75921;51.616;11.880;2024-03-02T01:08:54;37.20;;;17.50;;
85510;SDS011;75921;51.616;11.880;2024-03-02T01:11:20;40.07;;;18.73;;
85510;SDS011;75921;51.616;11.880;2024-03-02T01:13:48;41.67;;;19.42;;
85510;SDS011;75921;51.616;11.880;2024-03-02T01:16:14;40.93;;;18.13;;
85510;SDS011;75921;51.616;11.880;2024-03-02T01:18:40;39.65;;;18.88;;
85510;SDS011;75921;51.616;11.880;2024-03-02T01:21:06;35.53;;;19.20;;
85510;SDS011;75921;51.616;11.880;2024-03-02T01:23:31;39.17;;;19.07;;
85510;SDS011;75921;51.616;11.880;2024-03-02T01:25:56;35.03;;;17.50;;
85510;SDS011;75921;51.616;11.880;2024-03-02T01:28:21;38.13;;;18.13;;
85510;SDS011;75921;51.616;11.880;2024-03-02T01:30:47;41.03;;;18.10;;
85510;SDS011;75921;51.616;11.880;2024-03-02T01:33:13;36.97;;;18.58;;
85510;SDS011;75921;51.616;11.880;2024-03-02T01:35:38;46.83;;;21.20;;
85510;SDS011;75921;51.616;11.880;2024-03-02T01:38:03;37.22;;;19.25;;
85510;SDS011;75921;51.616;11.880;2024-03-02T01:40:31;46.50;;;21.33;;
85510;SDS011;75921;51.616;11.880;2024-03-02T01:42:56;46.03;;;19.98;;
85510;SDS011;75921;51.616;11.880;2024-03-02T01:45:23;49.70;;;21.98;;
85510;SDS011;75921;51.616;11.880;2024-03-02T01:47:49;45.13;;;21.73;;
85510;SDS011;75921;51.616;11.880;2024-03-02T01:50:14;41.17;;;21.37;;
85510;SDS011;75921;51.616;11.880;2024-03-02T01:52:40;35.63;;;17.90;;
85510;SDS011;75921;51.616;11.880;2024-03-02T01:55:06;37.85;;;17.95;;
85510;SDS011;75921;51.616;11.880;2024-03-02T01:57:32;35.60;;;18.13;;
85510;SDS011;75921;51.616;11.880;2024-03-02T01:59:58;41.58;;;18.27;;
85510;SDS011;75921;51.616;11.880;2024-03-02T02:02:23;40.35;;;19.00;;
85510;SDS011;75921;51.616;11.880;2024-03-02T02:04:48;37.70;;;16.53;;
85510;SDS011;75921;51.616;11.880;2024-03-02T02:07:14;41.00;;;17.80;;
85510;SDS011;75921;51.616;11.880;2024-03-02T02:09:39;43.10;;;19.37;;
85510;SDS011;75921;51.616;11.880;2024-03-02T02:12:07;38.28;;;17.15;;
85510;SDS011;75921;51.616;11.880;2024-03-02T02:14:34;42.45;;;19.77;;
85510;SDS011;75921;51.616;11.880;2024-03-02T02:16:59;48.30;;;21.77;;
85510;SDS011;75921;51.616;11.880;2024-03-02T02:19:24;46.03;;;21.85;;
85510;SDS011;75921;51.616;11.880;2024-03-02T02:21:50;50.60;;;23.30;;
85510;SDS011;75921;51.616;11.880;2024-03-02T02:24:15;47.30;;;22.57;;
85510;SDS011;75921;51.616;11.880;2024-03-02T02:26:40;39.87;;;19.37;;
85510;SDS011;75921;51.616;11.880;2024-03-02T02:29:05;43.83;;;19.63;;
85510;SDS011;75921;51.616;11.880;2024-03-02T02:31:40;44.37;;;18.97;;
85510;SDS011;75921;51.616;11.880;2024-03-02T02:34:06;41.10;;;18.42;;
85510;SDS011;75921;51.616;11.880;2024-03-02T02:36:32;40.05;;;19.33;;
85510;SDS011;75921;51.616;11.880;2024-03-02T02:38:59;39.60;;;18.95;;
85510;SDS011;75921;51.616;11.880;2024-03-02T02:41:31;38.50;;;18.40;;
85510;SDS011;75921;51.616;11.880;2024-03-02T02:43:57;41.37;;;18.50;;
85510;SDS011;75921;51.616;11.880;2024-03-02T02:46:22;45.20;;;20.30;;
85510;SDS011;75921;51.616;11.880;2024-03-02T02:48:47;42.77;;;19.40;;
85510;SDS011;75921;51.616;11.880;2024-03-02T02:51:12;38.30;;;18.43;;
85510;SDS011;75921;51.616;11.880;2024-03-02T02:53:38;36.37;;;18.67;;
85510;SDS011;75921;51.616;11.880;2024-03-02T02:56:05;37.97;;;18.35;;
85510;SDS011;75921;51.616;11.880;2024-03-02T02:58:31;41.42;;;19.27;;
85510;SDS011;75921;51.616;11.880;2024-03-02T03:00:56;41.10;;;18.73;;
85510;SDS011;75921;51.616;11.880;2024-03-02T03:03:21;44.73;;;22.13;;
85510;SDS011;75921;51.616;11.880;2024-03-02T03:05:47;40.93;;;20.07;;
85510;SDS011;75921;51.616;11.880;2024-03-02T03:08:13;43.63;;;21.25;;
85510;SDS011;75921;51.616;11.880;2024-03-02T03:10:38;39.60;;;18.77;;
85510;SDS011;75921;51.616;11.880;2024-03-02T03:13:03;43.03;;;19.50;;
85510;SDS011;75921;51.616;11.880;2024-03-02T03:15:29;39.17;;;19.13;;
85510;SDS011;75921;51.616;11.880;2024-03-02T03:17:54;48.40;;;22.37;;
85510;SDS011;75921;51.616;11.880;2024-03-02T03:20:19;43.17;;;20.37;;
85510;SDS011;75921;51.616;11.880;2024-03-02T03:22:46;48.53;;;21.88;;
85510;SDS011;75921;51.616;11.880;2024-03-02T03:25:11;48.30;;;21.17;;
85510;SDS011;75921;51.616;11.880;2024-03-02T03:27:37;42.92;;;19.70;;
85510;SDS011;75921;51.616;11.880;2024-03-02T03:30:02;42.83;;;20.53;;
85510;SDS011;75921;51.616;11.880;2024-03-02T03:32:28;39.20;;;19.35;;
85510;SDS011;75921;51.616;11.880;2024-03-02T03:34:53;38.93;;;17.40;;
85510;SDS011;75921;51.616;11.880;2024-03-02T03:37:18;47.67;;;21.73;;
85510;SDS011;75921;51.616;11.880;2024-03-02T03:39:43;39.77;;;17.73;;
85510;SDS011;75921;51.616;11.880;2024-03-02T03:42:09;36.80;;;18.30;;
85510;SDS011;75921;51.616;11.880;2024-03-02T03:44:34;41.88;;;18.95;;
85510;SDS011;75921;51.616;11.880;2024-03-02T03:46:59;39.57;;;17.60;;
85510;SDS011;75921;51.616;11.880;2024-03-02T03:49:27;40.78;;;18.13;;
85510;SDS011;75921;51.616;11.880;2024-03-02T03:51:52;38.43;;;17.63;;
85510;SDS011;75921;51.616;11.880;2024-03-02T03:54:17;34.90;;;17.90;;
85510;SDS011;75921;51.616;11.880;2024-03-02T04:03:04;37.72;;;18.13;;
85510;SDS011;75921;51.616;11.880;2024-03-02T04:05:29;36.53;;;17.70;;
85510;SDS011;75921;51.616;11.880;2024-03-02T04:07:54;33.47;;;17.27;;
85510;SDS011;75921;51.616;11.880;2024-03-02T04:10:20;33.47;;;17.27;;
85510;SDS011;75921;51.616;11.880;2024-03-02T04:12:45;39.05;;;17.08;;
85510;SDS011;75921;51.616;11.880;2024-03-02T04:15:11;34.67;;;16.53;;
85510;SDS011;75921;51.616;11.880;2024-03-02T04:17:36;36.03;;;17.10;;
85510;SDS011;75921;51.616;11.880;2024-03-02T04:20:01;37.35;;;17.85;;
85510;SDS011;75921;51.616;11.880;2024-03-02T04:22:29;35.05;;;17.98;;
85510;SDS011;75921;51.616;11.880;2024-03-02T04:24:54;34.50;;;17.90;;
85510;SDS011;75921;51.616;11.880;2024-03-02T04:27:20;34.00;;;15.97;;
85510;SDS011;75921;51.616;11.880;2024-03-02T04:29:45;35.10;;;16.87;;
85510;SDS011;75921;51.616;11.880;2024-03-02T04:32:10;32.43;;;17.10;;
85510;SDS011;75921;51.616;11.880;2024-03-02T04:34:35;35.83;;;17.53;;
85510;SDS011;75921;51.616;11.880;2024-03-02T04:37:01;34.53;;;16.87;;
85510;SDS011;75921;51.616;11.880;2024-03-02T04:39:26;38.80;;;17.73;;
85510;SDS011;75921;51.616;11.880;2024-03-02T04:41:51;30.57;;;15.77;;
85510;SDS011;75921;51.616;11.880;2024-03-02T04:44:16;34.40;;;17.80;;
85510;SDS011;75921;51.616;11.880;2024-03-02T04:46:42;30.90;;;16.53;;
85510;SDS011;75921;51.616;11.880;2024-03-02T04:49:07;35.57;;;17.33;;
85510;SDS011;75921;51.616;11.880;2024-03-02T04:51:32;39.08;;;16.05;;
85510;SDS011;75921;51.616;11.880;2024-03-02T04:53:58;35.57;;;16.43;;
85510;SDS011;75921;51.616;11.880;2024-03-02T04:56:23;37.20;;;17.05;;
85510;SDS011;75921;51.616;11.880;2024-03-02T04:58:51;33.80;;;16.80;;
85510;SDS011;75921;51.616;11.880;2024-03-02T05:01:16;36.03;;;17.27;;
85510;SDS011;75921;51.616;11.880;2024-03-02T05:03:42;33.55;;;16.35;;
85510;SDS011;75921;51.616;11.880;2024-03-02T05:06:07;33.90;;;16.37;;
85510;SDS011;75921;51.616;11.880;2024-03-02T05:08:33;35.35;;;16.33;;
85510;SDS011;75921;51.616;11.880;2024-03-02T05:10:59;29.55;;;16.02;;
85510;SDS011;75921;51.616;11.880;2024-03-02T05:13:44;27.95;;;15.00;;
85510;SDS011;75921;51.616;11.880;2024-03-02T05:16:09;31.43;;;14.93;;
85510;SDS011;75921;51.616;11.880;2024-03-02T05:18:34;30.77;;;16.83;;
85510;SDS011;75921;51.616;11.880;2024-03-02T05:20:59;39.97;;;17.60;;
85510;SDS011;75921;51.616;11.880;2024-03-02T05:23:25;32.47;;;16.87;;
85510;SDS011;75921;51.616;11.880;2024-03-02T05:25:50;35.83;;;17.90;;
85510;SDS011;75921;51.616;11.880;2024-03-02T05:28:15;29.47;;;14.30;;
85510;SDS011;75921;51.616;11.880;2024-03-02T05:30:42;32.23;;;16.07;;
85510;SDS011;75921;51.616;11.880;2024-03-02T05:33:07;32.58;;;16.02;;
85510;SDS011;75921;51.616;11.880;2024-03-02T05:35:32;35.57;;;15.93;;
85510;SDS011;75921;51.616;11.880;2024-03-02T05:37:58;32.33;;;14.57;;
85510;SDS011;75921;51.616;11.880;2024-03-02T05:40:23;37.40;;;18.00;;
85510;SDS011;75921;51.616;11.880;2024-03-02T05:42:49;30.30;;;14.73;;
85510;SDS011;75921;51.616;11.880;2024-03-02T05:45:14;33.77;;;15.23;;
85510;SDS011;75921;51.616;11.880;2024-03-02T05:47:41;33.50;;;16.63;;
85510;SDS011;75921;51.616;11.880;2024-03-02T05:50:06;31.60;;;14.40;;
85510;SDS011;75921;51.616;11.880;2024-03-02T05:52:32;32.30;;;15.10;;
85510;SDS011;75921;51.616;11.880;2024-03-02T05:54:57;33.80;;;15.33;;
85510;SDS011;75921;51.616;11.880;2024-03-02T05:57:22;28.13;;;14.97;;
85510;SDS011;75921;51.616;11.880;2024-03-02T06:00:12;30.73;;;15.10;;
85510;SDS011;75921;51.616;11.880;2024-03-02T06:02:40;33.50;;;15.05;;
85510;SDS011;75921;51.616;11.880;2024-03-02T06:05:06;36.20;;;17.33;;
85510;SDS011;75921;51.616;11.880;2024-03-02T06:07:32;28.38;;;15.90;;
85510;SDS011;75921;51.616;11.880;2024-03-02T06:09:57;29.85;;;15.52;;
85510;SDS011;75921;51.616;11.880;2024-03-02T06:12:23;33.88;;;16.52;;
85510;SDS011;75921;51.616;11.880;2024-03-02T06:14:48;30.58;;;16.70;;
85510;SDS011;75921;51.616;11.880;2024-03-02T06:17:14;33.07;;;16.57;;
85510;SDS011;75921;51.616;11.880;2024-03-02T06:19:39;35.17;;;17.13;;
85510;SDS011;75921;51.616;11.880;2024-03-02T06:22:04;36.23;;;17.03;;
85510;SDS011;75921;51.616;11.880;2024-03-02T06:24:30;28.30;;;14.93;;
85510;SDS011;75921;51.616;11.880;2024-03-02T06:26:55;31.30;;;16.30;;
85510;SDS011;75921;51.616;11.880;2024-03-02T06:29:21;38.30;;;16.57;;
85510;SDS011;75921;51.616;11.880;2024-03-02T06:31:46;32.20;;;14.90;;
85510;SDS011;75921;51.616;11.880;2024-03-02T06:34:12;27.50;;;14.97;;
85510;SDS011;75921;51.616;11.880;2024-03-02T06:36:38;28.97;;;14.03;;
85510;SDS011;75921;51.616;11.880;2024-03-02T06:39:05;25.92;;;13.88;;
85510;SDS011;75921;51.616;11.880;2024-03-02T06:41:30;32.27;;;15.63;;
85510;SDS011;75921;51.616;11.880;2024-03-02T06:43:56;29.70;;;14.68;;
85510;SDS011;75921;51.616;11.880;2024-03-02T06:46:24;37.20;;;16.90;;
85510;SDS011;75921;51.616;11.880;2024-03-02T06:48:50;32.13;;;15.02;;
85510;SDS011;75921;51.616;11.880;2024-03-02T06:51:15;24.73;;;13.43;;
85510;SDS011;75921;51.616;11.880;2024-03-02T06:53:41;33.30;;;14.98;;
85510;SDS011;75921;51.616;11.880;2024-03-02T06:56:07;38.47;;;17.67;;
85510;SDS011;75921;51.616;11.880;2024-03-02T06:58:33;30.25;;;15.48;;
85510;SDS011;75921;51.616;11.880;2024-03-02T07:00:58;30.30;;;14.70;;
85510;SDS011;75921;51.616;11.880;2024-03-02T07:03:26;29.95;;;14.75;;
85510;SDS011;75921;51.616;11.880;2024-03-02T07:05:52;35.93;;;16.07;;
85510;SDS011;75921;51.616;11.880;2024-03-02T07:08:17;31.17;;;15.73;;
85510;SDS011;75921;51.616;11.880;2024-03-02T07:10:42;28.90;;;14.73;;
85510;SDS011;75921;51.616;11.880;2024-03-02T07:13:07;28.63;;;14.67;;
85510;SDS011;75921;51.616;11.880;2024-03-02T07:15:33;29.47;;;15.10;;
85510;SDS011;75921;51.616;11.880;2024-03-02T07:18:15;27.30;;;14.45;;
85510;SDS011;75921;51.616;11.880;2024-03-02T07:20:40;33.17;;;14.03;;
85510;SDS011;75921;51.616;11.880;2024-03-02T07:23:05;28.57;;;14.77;;
85510;SDS011;75921;51.616;11.880;2024-03-02T07:25:31;27.83;;;14.30;;
85510;SDS011;75921;51.616;11.880;2024-03-02T07:27:56;30.07;;;15.37;;
85510;SDS011;75921;51.616;11.880;2024-03-02T07:30:21;32.67;;;14.85;;
85510;SDS011;75921;51.616;11.880;2024-03-02T07:32:49;25.80;;;13.20;;
85510;SDS011;75921;51.616;11.880;2024-03-02T07:35:15;38.40;;;17.98;;
85510;SDS011;75921;51.616;11.880;2024-03-02T07:37:43;34.33;;;19.40;;
85510;SDS011;75921;51.616;11.880;2024-03-02T07:40:09;32.53;;;15.32;;
85510;SDS011;75921;51.616;11.880;2024-03-02T07:42:38;32.03;;;15.38;;
85510;SDS011;75921;51.616;11.880;2024-03-02T07:45:04;31.52;;;13.95;;
85510;SDS011;75921;51.616;11.880;2024-03-02T07:47:30;33.83;;;15.88;;
85510;SDS011;75921;51.616;11.880;2024-03-02T07:49:55;37.27;;;15.87;;
85510;SDS011;75921;51.616;11.880;2024-03-02T07:52:20;27.13;;;13.43;;
85510;SDS011;75921;51.616;11.880;2024-03-02T07:54:46;32.17;;;16.20;;
85510;SDS011;75921;51.616;11.880;2024-03-02T07:57:11;37.17;;;16.33;;
85510;SDS011;75921;51.616;11.880;2024-03-02T07:59:36;34.70;;;15.98;;
85510;SDS011;75921;51.616;11.880;2024-03-02T08:02:02;44.88;;;19.48;;
85510;SDS011;75921;51.616;11.880;2024-03-02T08:04:28;43.72;;;21.42;;
85510;SDS011;75921;51.616;11.880;2024-03-02T08:06:53;42.00;;;20.23;;
85510;SDS011;75921;51.616;11.880;2024-03-02T08:09:19;47.92;;;21.27;;
85510;SDS011;75921;51.616;11.880;2024-03-02T08:11:45;48.50;;;22.27;;
85510;SDS011;75921;51.616;11.880;2024-03-02T08:14:10;38.30;;;17.60;;
85510;SDS011;75921;51.616;11.880;2024-03-02T08:16:35;40.80;;;19.92;;
85510;SDS011;75921;51.616;11.880;2024-03-02T08:19:00;33.83;;;16.43;;
85510;SDS011;75921;51.616;11.880;2024-03-02T08:21:26;43.00;;;20.90;;
85510;SDS011;75921;51.616;11.880;2024-03-02T08:23:51;56.90;;;24.23;;
85510;SDS011;75921;51.616;11.880;2024-03-02T08:26:16;59.30;;;23.52;;
85510;SDS011;75921;51.616;11.880;2024-03-02T08:28:42;53.33;;;22.17;;
85510;SDS011;75921;51.616;11.880;2024-03-02T08:31:07;54.53;;;24.47;;
85510;SDS011;75921;51.616;11.880;2024-03-02T08:33:33;41.20;;;18.70;;
85510;SDS011;75921;51.616;11.880;2024-03-02T08:35:59;45.13;;;19.77;;
85510;SDS011;75921;51.616;11.880;2024-03-02T08:38:25;42.00;;;19.48;;
85510;SDS011;75921;51.616;11.880;2024-03-02T08:40:50;36.10;;;17.70;;
85510;SDS011;75921;51.616;11.880;2024-03-02T08:43:16;49.45;;;20.33;;
85510;SDS011;75921;51.616;11.880;2024-03-02T08:45:42;45.63;;;21.88;;
85510;SDS011;75921;51.616;11.880;2024-03-02T08:48:07;48.20;;;21.25;;
85510;SDS011;75921;51.616;11.880;2024-03-02T08:50:36;28.45;;;12.88;;
85510;SDS011;75921;51.616;11.880;2024-03-02T08:53:03;33.90;;;17.98;;
85510;SDS011;75921;51.616;11.880;2024-03-02T08:55:28;27.92;;;14.77;;
85510;SDS011;75921;51.616;11.880;2024-03-02T08:57:53;39.57;;;19.07;;
85510;SDS011;75921;51.616;11.880;2024-03-02T09:00:20;28.17;;;14.57;;
85510;SDS011;75921;51.616;11.880;2024-03-02T09:02:46;40.42;;;19.38;;
85510;SDS011;75921;51.616;11.880;2024-03-02T09:05:11;38.97;;;19.53;;
85510;SDS011;75921;51.616;11.880;2024-03-02T09:07:37;42.90;;;20.27;;
85510;SDS011;75921;51.616;11.880;2024-03-02T09:10:03;29.08;;;15.10;;
85510;SDS011;75921;51.616;11.880;2024-03-02T09:12:29;45.70;;;20.15;;
85510;SDS011;75921;51.616;11.880;2024-03-02T09:14:54;38.57;;;16.80;;
85510;SDS011;75921;51.616;11.880;2024-03-02T09:17:20;39.47;;;18.93;;
85510;SDS011;75921;51.616;11.880;2024-03-02T09:19:45;38.83;;;18.17;;
85510;SDS011;75921;51.616;11.880;2024-03-02T09:22:10;48.47;;;21.77;;
85510;SDS011;75921;51.616;11.880;2024-03-02T09:24:35;41.60;;;18.07;;
85510;SDS011;75921;51.616;11.880;2024-03-02T09:27:01;43.33;;;19.87;;
85510;SDS011;75921;51.616;11.880;2024-03-02T09:29:26;35.00;;;14.38;;
85510;SDS011;75921;51.616;11.880;2024-03-02T09:31:51;34.67;;;17.03;;
85510;SDS011;75921;51.616;11.880;2024-03-02T09:34:17;32.27;;;15.30;;
85510;SDS011;75921;51.616;11.880;2024-03-02T09:36:42;41.88;;;19.13;;
85510;SDS011;75921;51.616;11.880;2024-03-02T09:39:08;26.40;;;13.68;;
85510;SDS011;75921;51.616;11.880;2024-03-02T09:41:37;31.33;;;15.80;;
85510;SDS011;75921;51.616;11.880;2024-03-02T09:44:03;36.75;;;16.92;;
85510;SDS011;75921;51.616;11.880;2024-03-02T09:46:29;37.65;;;15.77;;
85510;SDS011;75921;51.616;11.880;2024-03-02T09:48:55;39.42;;;16.30;;
85510;SDS011;75921;51.616;11.880;2024-03-02T09:51:20;38.87;;;18.23;;
85510;SDS011;75921;51.616;11.880;2024-03-02T09:53:45;43.65;;;19.00;;
85510;SDS011;75921;51.616;11.880;2024-03-02T09:56:12;37.30;;;17.58;;
85510;SDS011;75921;51.616;11.880;2024-03-02T09:58:38;35.65;;;16.52;;
85510;SDS011;75921;51.616;11.880;2024-03-02T10:01:05;38.65;;;16.67;;
85510;SDS011;75921;51.616;11.880;2024-03-02T10:03:31;44.88;;;21.08;;
85510;SDS011;75921;51.616;11.880;2024-03-02T10:06:17;35.53;;;16.77;;
85510;SDS011;75921;51.616;11.880;2024-03-02T10:08:50;41.28;;;17.73;;
85510;SDS011;75921;51.616;11.880;2024-03-02T10:11:36;42.38;;;19.27;;
85510;SDS011;75921;51.616;11.880;2024-03-02T10:14:09;40.53;;;18.10;;
85510;SDS011;75921;51.616;11.880;2024-03-02T10:16:37;27.38;;;15.23;;
85510;SDS011;75921;51.616;11.880;2024-03-02T10:19:16;33.30;;;15.63;;
85510;SDS011;75921;51.616;11.880;2024-03-02T10:21:54;37.05;;;16.92;;
85510;SDS011;75921;51.616;11.880;2024-03-02T10:24:20;33.90;;;17.02;;
85510;SDS011;75921;51.616;11.880;2024-03-02T10:26:47;30.23;;;15.70;;
85510;SDS011;75921;51.616;11.880;2024-03-02T10:29:13;31.00;;;15.15;;
85510;SDS011;75921;51.616;11.880;2024-03-02T10:31:39;34.45;;;15.45;;
85510;SDS011;75921;51.616;11.880;2024-03-02T10:34:06;31.33;;;14.82;;
85510;SDS011;75921;51.616;11.880;2024-03-02T10:36:33;34.78;;;15.23;;
85510;SDS011;75921;51.616;11.880;2024-03-02T10:39:01;35.08;;;16.17;;
85510;SDS011;75921;51.616;11.880;2024-03-02T10:41:32;32.17;;;14.73;;
85510;SDS011;75921;51.616;11.880;2024-03-02T10:43:58;24.42;;;13.32;;
85510;SDS011;75921;51.616;11.880;2024-03-02T10:46:27;31.77;;;15.40;;
85510;SDS011;75921;51.616;11.880;2024-03-02T10:48:54;27.50;;;11.93;;
85510;SDS011;75921;51.616;11.880;2024-03-02T10:51:20;27.38;;;13.32;;
85510;SDS011;75921;51.616;11.880;2024-03-02T10:53:45;29.53;;;14.87;;
85510;SDS011;75921;51.616;11.880;2024-03-02T10:56:11;29.60;;;13.70;;
85510;SDS011;75921;51.616;11.880;2024-03-02T10:58:41;29.48;;;13.70;;
85510;SDS011;75921;51.616;11.880;2024-03-02T11:01:06;22.77;;;10.90;;
85510;SDS011;75921;51.616;11.880;2024-03-02T11:03:35;31.50;;;15.43;;
85510;SDS011;75921;51.616;11.880;2024-03-02T11:06:02;33.28;;;15.95;;
85510;SDS011;75921;51.616;11.880;2024-03-02T11:08:32;28.83;;;14.07;;
85510;SDS011;75921;51.616;11.880;2024-03-02T11:11:06;27.33;;;13.63;;
85510;SDS011;75921;51.616;11.880;2024-03-02T11:13:36;32.25;;;15.90;;
85510;SDS011;75921;51.616;11.880;2024-03-02T11:16:09;30.88;;;15.07;;
85510;SDS011;75921;51.616;11.880;2024-03-02T11:18:41;32.45;;;16.65;;
85510;SDS011;75921;51.616;11.880;2024-03-02T11:21:07;30.33;;;13.65;;
85510;SDS011;75921;51.616;11.880;2024-03-02T11:23:33;26.85;;;14.02;;
85510;SDS011;75921;51.616;11.880;2024-03-02T11:26:18;27.25;;;14.20;;
85510;SDS011;75921;51.616;11.880;2024-03-02T11:28:46;28.40;;;13.48;;
85510;SDS011;75921;51.616;11.880;2024-03-02T11:31:12;28.67;;;13.50;;
85510;SDS011;75921;51.616;11.880;2024-03-02T11:33:37;30.47;;;14.10;;
85510;SDS011;75921;51.616;11.880;2024-03-02T11:36:03;25.08;;;11.48;;
85510;SDS011;75921;51.616;11.880;2024-03-02T11:38:30;29.48;;;13.43;;
85510;SDS011;75921;51.616;11.880;2024-03-02T11:40:57;29.73;;;15.32;;
85510;SDS011;75921;51.616;11.880;2024-03-02T11:43:30;29.83;;;12.80;;
85510;SDS011;75921;51.616;11.880;2024-03-02T11:46:03;27.10;;;14.10;;
85510;SDS011;75921;51.616;11.880;2024-03-02T11:48:31;26.77;;;13.57;;
85510;SDS011;75921;51.616;11.880;2024-03-02T11:50:57;27.60;;;12.38;;
85510;SDS011;75921;51.616;11.880;2024-03-02T11:53:24;20.20;;;11.38;;
85510;SDS011;75921;51.616;11.880;2024-03-02T11:55:52;26.15;;;13.25;;
85510;SDS011;75921;51.616;11.880;2024-03-02T11:58:20;29.92;;;14.07;;
85510;SDS011;75921;51.616;11.880;2024-03-02T12:00:55;24.50;;;13.18;;
85510;SDS011;75921;51.616;11.880;2024-03-02T12:03:22;23.13;;;12.27;;
85510;SDS011;75921;51.616;11.880;2024-03-02T12:05:48;27.20;;;13.50;;
85510;SDS011;75921;51.616;11.880;2024-03-02T12:08:15;21.98;;;10.63;;
85510;SDS011;75921;51.616;11.880;2024-03-02T12:10:40;26.83;;;13.90;;
85510;SDS011;75921;51.616;11.880;2024-03-02T12:13:06;25.70;;;12.57;;
85510;SDS011;75921;51.616;11.880;2024-03-02T12:15:36;26.20;;;12.68;;
85510;SDS011;75921;51.616;11.880;2024-03-02T12:18:03;26.90;;;12.70;;
85510;SDS011;75921;51.616;11.880;2024-03-02T12:20:30;24.20;;;12.90;;
85510;SDS011;75921;51.616;11.880;2024-03-02T12:22:58;29.27;;;14.23;;
85510;SDS011;75921;51.616;11.880;2024-03-02T12:25:25;28.00;;;14.15;;
85510;SDS011;75921;51.616;11.880;2024-03-02T12:27:55;26.02;;;13.48;;
85510;SDS011;75921;51.616;11.880;2024-03-02T12:30:21;20.58;;;12.20;;
85510;SDS011;75921;51.616;11.880;2024-03-02T12:32:47;20.70;;;10.52;;
85510;SDS011;75921;51.616;11.880;2024-03-02T12:35:13;18.08;;;10.32;;
85510;SDS011;75921;51.616;11.880;2024-03-02T12:37:43;20.52;;;11.93;;
85510;SDS011;75921;51.616;11.880;2024-03-02T12:40:10;19.52;;;10.82;;
85510;SDS011;75921;51.616;11.880;2024-03-02T12:42:37;21.20;;;10.23;;
85510;SDS011;75921;51.616;11.880;2024-03-02T12:45:02;19.70;;;9.98;;
85510;SDS011;75921;51.616;11.880;2024-03-02T12:47:28;21.30;;;11.68;;
85510;SDS011;75921;51.616;11.880;2024-03-02T12:49:54;17.92;;;9.75;;
85510;SDS011;75921;51.616;11.880;2024-03-02T12:52:21;22.52;;;11.88;;
85510;SDS011;75921;51.616;11.880;2024-03-02T12:54:47;21.23;;;11.13;;
85510;SDS011;75921;51.616;11.880;2024-03-02T12:57:21;20.70;;;10.15;;
85510;SDS011;75921;51.616;11.880;2024-03-02T12:59:46;19.00;;;9.52;;
85510;SDS011;75921;51.616;11.880;2024-03-02T13:02:18;22.20;;;10.65;;
85510;SDS011;75921;51.616;11.880;2024-03-02T13:04:44;19.75;;;9.60;;
85510;SDS011;75921;51.616;11.880;2024-03-02T13:07:10;16.52;;;9.82;;
85510;SDS011;75921;51.616;11.880;2024-03-02T13:09:38;20.63;;;10.73;;
85510;SDS011;75921;51.616;11.880;2024-03-02T13:12:04;20.00;;;10.52;;
85510;SDS011;75921;51.616;11.880;2024-03-02T13:14:33;17.92;;;9.30;;
85510;SDS011;75921;51.616;11.880;2024-03-02T13:17:00;22.75;;;9.50;;
85510;SDS011;75921;51.616;11.880;2024-03-02T13:19:28;17.67;;;8.88;;
85510;SDS011;75921;51.616;11.880;2024-03-02T13:21:56;16.77;;;9.68;;
85510;SDS011;75921;51.616;11.880;2024-03-02T13:24:22;16.17;;;8.80;;
85510;SDS011;75921;51.616;11.880;2024-03-02T13:26:50;17.90;;;9.75;;
85510;SDS011;75921;51.616;11.880;2024-03-02T13:29:20;16.20;;;8.15;;
85510;SDS011;75921;51.616;11.880;2024-03-02T13:31:46;15.23;;;9.63;;
85510;SDS011;75921;51.616;11.880;2024-03-02T13:34:11;17.17;;;9.30;;
85510;SDS011;75921;51.616;11.880;2024-03-02T13:36:37;22.10;;;10.15;;
85510;SDS011;75921;51.616;11.880;2024-03-02T13:39:03;17.45;;;9.55;;
85510;SDS011;75921;51.616;11.880;2024-03-02T13:41:30;18.20;;;10.30;;
85510;SDS011;75921;51.616;11.880;2024-03-02T13:43:55;14.83;;;9.10;;
85510;SDS011;75921;51.616;11.880;2024-03-02T13:46:20;17.48;;;9.45;;
85510;SDS011;75921;51.616;11.880;2024-03-02T13:48:47;16.58;;;8.38;;
85510;SDS011;75921;51.616;11.880;2024-03-02T13:51:12;16.67;;;9.13;;
85510;SDS011;75921;51.616;11.880;2024-03-02T13:53:37;15.13;;;8.70;;
85510;SDS011;75921;51.616;11.880;2024-03-02T13:56:02;15.93;;;7.53;;
85510;SDS011;75921;51.616;11.880;2024-03-02T13:58:28;16.58;;;9.23;;
85510;SDS011;75921;51.616;11.880;2024-03-02T14:00:53;15.47;;;8.67;;
85510;SDS011;75921;51.616;11.880;2024-03-02T14:03:19;14.23;;;8.18;;
85510;SDS011;75921;51.616;11.880;2024-03-02T14:05:44;13.32;;;7.75;;
85510;SDS011;75921;51.616;11.880;2024-03-02T14:08:11;15.05;;;8.80;;
85510;SDS011;75921;51.616;11.880;2024-03-02T14:10:36;14.63;;;7.60;;
85510;SDS011;75921;51.616;11.880;2024-03-02T14:13:01;11.43;;;6.30;;
85510;SDS011;75921;51.616;11.880;2024-03-02T14:15:27;12.47;;;7.63;;
85510;SDS011;75921;51.616;11.880;2024-03-02T14:17:55;12.80;;;7.18;;